map of ORL home
ORL - Airport
Location
City:  Orlando, Florida, United States
Name:Executive Airport
ICAO:KORL
IATA:ORL
FAA LID:ORL

Details
Type:Airport (Airfield)
Use:Public/Civil
Latitude:2832'44"N (28.545462)
Longitude:8119'59"W (-81.332929)
Datum:WGS 1984
Elevation:112 ft (34 m)
Variation:6.45W (WMM2015v2 magnetic declination)
-0.07 annual change
Runways:2
Longest:6004 × 150 ft (1830 × 45.5 m), paved

Time
Time Zone:UTC-5 (DST-4)
Local Time:

Weather
METAR:KORL 041353Z 00000KT 10SM OVC006 14/13 A3009 RMK AO2 SLP194 T01390133

Related Locations
Nearby:
Farthest:USL: 11526 mi / 18549 km
Useless Loop, WA, AU

Find:

   beyond  
but within

Other Information
Maps:
NOTAMs:
Links:
Sources:

  
  • flag of United States
  • flag of Florida
  • flag of Orlando
  

Airport Diagram

Airport diagram for ORL

Airport diagram PDF from FAA

Sectional Chart

Flight Planning
at skyvector.com

Satellite Image

Google Maps Satellite view

 

Copyright © 2004-2019 Karl L. Swartz. All rights reserved.
The Great Circle Mapper name and logo are trademarks of the Great Circle Mapper.
All other trademarks mentioned herein belong to their respective owners.
Please see credits for attibutions and further copyright information.

  Follow gcmap on Facebook Follow gcmap on Twitter GCmap on LinkedIn

hCard Microformat

Geo Microformat